createdAt,value
2019-02-28T00:00:40.706Z,0.00
2019-02-28T00:01:38.487Z,0.00
2019-02-28T00:02:38.478Z,0.00
2019-02-28T00:03:39.031Z,0.00
2019-02-28T00:04:38.453Z,0.00
2019-02-28T00:05:39.084Z,0.00
2019-02-28T00:06:38.445Z,0.00
2019-02-28T00:07:38.421Z,0.00
2019-02-28T00:08:38.411Z,0.00
2019-02-28T00:09:38.410Z,0.00
2019-02-28T00:10:38.410Z,0.00
2019-02-28T00:11:39.518Z,0.00
2019-02-28T00:12:38.369Z,0.00
2019-02-28T00:13:38.354Z,0.00
2019-02-28T00:14:38.345Z,0.00
2019-02-28T00:15:38.345Z,0.00
2019-02-28T00:16:39.052Z,0.00
2019-02-28T00:17:42.725Z,0.00
2019-02-28T00:18:38.299Z,0.00
2019-02-28T00:19:38.290Z,0.00
2019-02-28T00:20:38.546Z,0.00
2019-02-28T00:21:40.631Z,0.00
2019-02-28T00:22:38.255Z,0.00
2019-02-28T00:23:38.244Z,0.00
2019-02-28T00:24:38.231Z,0.00
2019-02-28T00:25:38.658Z,0.00
2019-02-28T00:26:38.260Z,0.00
2019-02-28T00:27:38.199Z,0.00
2019-02-28T00:28:38.190Z,0.00
2019-02-28T00:29:38.178Z,0.00
2019-02-28T00:30:40.758Z,0.00
2019-02-28T00:31:38.170Z,0.00
2019-02-28T00:32:38.143Z,0.00
2019-02-28T00:33:39.032Z,0.00
2019-02-28T00:34:39.232Z,0.00
2019-02-28T00:35:38.127Z,0.00
2019-02-28T00:36:38.103Z,0.00
2019-02-28T00:37:38.092Z,0.00
2019-02-28T00:38:38.079Z,0.00
2019-02-28T00:39:38.070Z,0.00
2019-02-28T00:40:38.700Z,0.00
2019-02-28T00:41:42.987Z,0.00
2019-02-28T00:42:38.035Z,0.00
2019-02-28T00:43:38.028Z,0.00
2019-02-28T00:44:38.014Z,0.00
2019-02-28T00:45:38.061Z,0.00
2019-02-28T00:46:38.010Z,0.00
2019-02-28T00:47:37.979Z,0.00
2019-02-28T00:48:38.536Z,0.00
2019-02-28T00:49:37.958Z,0.00
2019-02-28T00:50:38.052Z,0.00
2019-02-28T00:51:38.552Z,0.00
2019-02-28T00:52:38.533Z,0.00
2019-02-28T00:53:38.203Z,0.00
2019-02-28T00:54:43.106Z,0.00
2019-02-28T00:55:37.899Z,0.00
2019-02-28T00:56:37.914Z,0.00
2019-02-28T00:57:37.871Z,0.00
2019-02-28T00:58:38.536Z,0.00
2019-02-28T00:59:37.854Z,0.00
2019-02-28T01:00:38.183Z,0.00
2019-02-28T01:01:37.842Z,0.00
2019-02-28T01:02:38.532Z,0.00
2019-02-28T01:03:37.808Z,0.00
2019-02-28T01:04:37.794Z,0.00
2019-02-28T01:05:38.051Z,0.00
2019-02-28T01:06:37.785Z,0.00
2019-02-28T01:07:38.535Z,0.00
2019-02-28T01:08:37.747Z,0.00
2019-02-28T01:09:37.739Z,0.00
2019-02-28T01:10:39.233Z,0.00
2019-02-28T01:11:38.549Z,0.00
2019-02-28T01:12:37.704Z,0.00
2019-02-28T01:13:38.536Z,0.00
2019-02-28T01:14:37.688Z,0.00
2019-02-28T01:15:37.681Z,0.00
2019-02-28T01:16:37.677Z,0.00
2019-02-28T01:17:37.652Z,0.00
2019-02-28T01:18:37.637Z,0.00
2019-02-28T01:19:41.242Z,0.00
2019-02-28T01:20:37.628Z,0.00
2019-02-28T01:21:37.626Z,0.00
2019-02-28T01:22:37.595Z,0.00
2019-02-28T01:23:37.585Z,0.00
2019-02-28T01:24:38.537Z,0.00
2019-02-28T01:25:40.153Z,0.00
2019-02-28T01:26:37.563Z,0.00
2019-02-28T01:27:37.541Z,0.00
2019-02-28T01:28:37.530Z,0.00
2019-02-28T01:29:37.539Z,0.00
2019-02-28T01:30:40.614Z,0.00
2019-02-28T01:31:38.053Z,0.00
2019-02-28T01:32:38.038Z,0.00
2019-02-28T01:33:38.041Z,0.00
2019-02-28T01:34:37.466Z,0.00
2019-02-28T01:35:40.640Z,0.00
2019-02-28T01:36:38.056Z,0.00
2019-02-28T01:37:38.038Z,0.00
2019-02-28T01:38:38.041Z,0.00
2019-02-28T01:39:38.038Z,0.00
2019-02-28T01:40:37.769Z,0.00
2019-02-28T01:41:38.051Z,0.00
2019-02-28T01:42:37.372Z,0.00
2019-02-28T01:43:38.038Z,0.00
2019-02-28T01:44:37.355Z,0.00
2019-02-28T01:45:37.361Z,0.00
2019-02-28T01:46:37.344Z,0.00
2019-02-28T01:47:37.318Z,0.00
2019-02-28T01:48:38.041Z,0.00
2019-02-28T01:49:37.299Z,0.00
2019-02-28T01:50:38.043Z,0.00
2019-02-28T01:51:37.299Z,0.00
2019-02-28T01:52:37.267Z,0.00
2019-02-28T01:53:38.041Z,0.00
2019-02-28T01:54:37.249Z,0.00
2019-02-28T01:55:37.234Z,0.00
2019-02-28T01:56:37.845Z,0.00
2019-02-28T01:57:42.364Z,0.00
2019-02-28T01:58:37.203Z,0.00
2019-02-28T01:59:37.192Z,0.00
2019-02-28T02:00:37.178Z,0.00
2019-02-28T02:01:37.196Z,0.00
2019-02-28T02:02:38.094Z,0.00
2019-02-28T02:03:40.665Z,0.00
2019-02-28T02:04:37.137Z,0.00
2019-02-28T02:05:37.134Z,0.00
2019-02-28T02:06:37.142Z,0.00
2019-02-28T02:07:37.108Z,0.00
2019-02-28T02:08:37.840Z,0.00
2019-02-28T02:09:37.085Z,0.00
2019-02-28T02:10:38.040Z,0.00
2019-02-28T02:11:37.557Z,0.00
2019-02-28T02:12:37.053Z,0.00
2019-02-28T02:13:37.495Z,0.00
2019-02-28T02:14:37.030Z,0.00
2019-02-28T02:15:37.019Z,0.00
2019-02-28T02:16:37.014Z,0.00
2019-02-28T02:17:37.002Z,0.00
2019-02-28T02:18:36.990Z,0.00
2019-02-28T02:19:36.977Z,0.00
2019-02-28T02:20:36.968Z,0.00
2019-02-28T02:21:37.057Z,0.00
2019-02-28T02:22:36.961Z,0.00
2019-02-28T02:23:36.930Z,0.00
2019-02-28T02:24:36.922Z,0.00
2019-02-28T02:25:37.604Z,0.00
2019-02-28T02:26:36.912Z,0.00
2019-02-28T02:27:37.547Z,0.00
2019-02-28T02:28:37.540Z,0.00
2019-02-28T02:29:37.126Z,0.00
2019-02-28T02:30:36.863Z,0.00
2019-02-28T02:31:36.857Z,0.00
2019-02-28T02:32:38.767Z,0.00
2019-02-28T02:33:36.824Z,0.00
2019-02-28T02:34:36.820Z,0.00
2019-02-28T02:35:42.217Z,0.00
2019-02-28T02:36:36.845Z,0.00
2019-02-28T02:37:36.805Z,0.00
2019-02-28T02:38:41.483Z,0.00
2019-02-28T02:39:36.770Z,0.00
2019-02-28T02:40:36.750Z,0.00
2019-02-28T02:41:36.755Z,0.00
2019-02-28T02:42:36.757Z,0.00
2019-02-28T02:43:37.544Z,0.00
2019-02-28T02:44:37.545Z,0.00
2019-02-28T02:45:41.797Z,0.00
2019-02-28T02:46:36.717Z,0.00
2019-02-28T02:47:37.563Z,0.00
2019-02-28T02:48:38.453Z,0.00
2019-02-28T02:49:36.653Z,0.00
2019-02-28T02:50:36.644Z,0.00
2019-02-28T02:51:37.055Z,0.00
2019-02-28T02:52:36.631Z,0.00
2019-02-28T02:53:41.356Z,0.00
2019-02-28T02:54:36.600Z,0.00
2019-02-28T02:55:37.547Z,0.00
2019-02-28T02:56:41.962Z,0.00
2019-02-28T02:57:36.591Z,0.00
2019-02-28T02:58:36.561Z,0.00
2019-02-28T02:59:38.972Z,0.00
2019-02-28T03:00:36.568Z,0.00
2019-02-28T03:01:36.544Z,0.00
2019-02-28T03:02:36.525Z,0.00
2019-02-28T03:03:42.982Z,0.00
2019-02-28T03:04:36.501Z,0.00
2019-02-28T03:05:36.850Z,0.00
2019-02-28T03:06:36.476Z,0.00
2019-02-28T03:07:36.470Z,0.00
2019-02-28T03:08:37.425Z,0.00
2019-02-28T03:09:36.442Z,0.00
2019-02-28T03:10:36.430Z,0.00
2019-02-28T03:11:36.438Z,0.00
2019-02-28T03:12:36.407Z,0.00
2019-02-28T03:13:41.857Z,0.00
2019-02-28T03:14:36.383Z,0.00
2019-02-28T03:15:36.381Z,0.00
2019-02-28T03:16:36.379Z,0.00
2019-02-28T03:17:36.351Z,0.00
2019-02-28T03:18:36.341Z,0.00
2019-02-28T03:19:36.337Z,0.00
2019-02-28T03:20:36.319Z,0.00
2019-02-28T03:21:36.322Z,0.00
2019-02-28T03:22:36.297Z,0.00
2019-02-28T03:23:40.124Z,0.00
2019-02-28T03:24:36.307Z,0.00
2019-02-28T03:25:36.280Z,0.00
2019-02-28T03:26:41.370Z,0.00
2019-02-28T03:27:36.245Z,0.00
2019-02-28T03:28:36.248Z,0.00
2019-02-28T03:29:36.238Z,0.00
2019-02-28T03:30:36.218Z,0.00
2019-02-28T03:31:36.251Z,0.00
2019-02-28T03:32:41.821Z,0.00
2019-02-28T03:33:36.192Z,0.00
2019-02-28T03:34:36.260Z,0.00
2019-02-28T03:35:43.171Z,0.00
2019-02-28T03:36:36.162Z,0.00
2019-02-28T03:37:37.058Z,0.00
2019-02-28T03:38:36.140Z,0.00
2019-02-28T03:39:36.114Z,0.00
2019-02-28T03:40:40.223Z,0.00
2019-02-28T03:41:36.113Z,0.00
2019-02-28T03:42:37.066Z,0.00
2019-02-28T03:43:42.685Z,0.00
2019-02-28T03:44:36.063Z,0.00
2019-02-28T03:45:36.050Z,0.00
2019-02-28T03:46:36.052Z,0.00
2019-02-28T03:47:36.570Z,0.00
2019-02-28T03:48:36.551Z,0.00
2019-02-28T03:49:36.020Z,0.00
2019-02-28T03:50:36.000Z,0.00
2019-02-28T03:51:35.993Z,0.00
2019-02-28T03:52:41.777Z,0.00
2019-02-28T03:53:35.966Z,0.00
2019-02-28T03:54:35.957Z,0.00
2019-02-28T03:55:40.310Z,0.00
2019-02-28T03:56:35.934Z,0.00
2019-02-28T03:57:35.930Z,0.00
2019-02-28T03:58:41.487Z,0.00
2019-02-28T03:59:35.897Z,0.00
2019-02-28T04:00:35.888Z,0.00
2019-02-28T04:01:35.879Z,0.00
2019-02-28T04:02:35.879Z,0.00
2019-02-28T04:03:35.864Z,0.00
2019-02-28T04:04:35.847Z,0.00
2019-02-28T04:05:36.558Z,0.00
2019-02-28T04:06:39.588Z,0.00
2019-02-28T04:07:35.838Z,0.00
2019-02-28T04:08:35.818Z,0.00
2019-02-28T04:09:35.789Z,0.00
2019-02-28T04:10:36.551Z,0.00
2019-02-28T04:11:35.774Z,0.00
2019-02-28T04:12:35.781Z,0.00
2019-02-28T04:13:35.764Z,0.00
2019-02-28T04:14:36.550Z,0.00
2019-02-28T04:15:35.727Z,0.00
2019-02-28T04:16:35.715Z,0.00
2019-02-28T04:17:35.732Z,0.00
2019-02-28T04:18:44.326Z,0.00
2019-02-28T04:19:35.682Z,0.00
2019-02-28T04:20:37.458Z,0.00
2019-02-28T04:21:35.661Z,0.00
2019-02-28T04:22:36.095Z,0.00
2019-02-28T04:23:36.925Z,0.00
2019-02-28T04:24:35.634Z,0.00
2019-02-28T04:25:35.617Z,0.00
2019-02-28T04:26:35.604Z,0.00
2019-02-28T04:27:40.150Z,0.00
2019-02-28T04:28:35.603Z,0.00
2019-02-28T04:29:35.568Z,0.00
2019-02-28T04:30:42.400Z,0.00
2019-02-28T04:31:35.549Z,0.00
2019-02-28T04:32:35.552Z,0.00
2019-02-28T04:33:38.863Z,0.00
2019-02-28T04:34:35.533Z,0.00
2019-02-28T04:35:35.507Z,0.00
2019-02-28T04:36:36.572Z,0.00
2019-02-28T04:37:35.506Z,0.00
2019-02-28T04:38:35.483Z,0.00
2019-02-28T04:39:36.050Z,0.00
2019-02-28T04:40:36.053Z,0.00
2019-02-28T04:41:35.439Z,0.00
2019-02-28T04:42:36.649Z,0.00
2019-02-28T04:43:35.433Z,0.00
2019-02-28T04:44:35.406Z,0.00
2019-02-28T04:45:36.052Z,0.00
2019-02-28T04:46:35.382Z,0.00
2019-02-28T04:47:37.198Z,0.00
2019-02-28T04:48:35.397Z,0.00
2019-02-28T04:49:35.351Z,0.00
2019-02-28T04:50:36.073Z,0.00
2019-02-28T04:51:37.049Z,0.00
2019-02-28T04:52:35.327Z,0.00
2019-02-28T04:53:35.323Z,0.00
2019-02-28T04:54:35.300Z,0.00
2019-02-28T04:55:37.228Z,0.00
2019-02-28T04:56:35.273Z,0.00
2019-02-28T04:57:35.272Z,0.00
2019-02-28T04:58:35.264Z,0.00
2019-02-28T04:59:35.242Z,0.00
2019-02-28T05:00:37.862Z,0.00
2019-02-28T05:01:35.216Z,0.00
2019-02-28T05:02:35.216Z,0.00
2019-02-28T05:03:35.207Z,0.00
2019-02-28T05:04:36.088Z,0.00
2019-02-28T05:05:35.174Z,0.00
2019-02-28T05:06:35.165Z,0.00
2019-02-28T05:07:35.566Z,0.00
2019-02-28T05:08:38.646Z,0.00
2019-02-28T05:09:35.136Z,0.00
2019-02-28T05:10:36.054Z,0.00
2019-02-28T05:11:36.052Z,0.00
2019-02-28T05:12:36.235Z,0.00
2019-02-28T05:13:35.098Z,0.00
2019-02-28T05:14:35.078Z,0.00
2019-02-28T05:15:38.481Z,0.00
2019-02-28T05:16:35.053Z,0.00
2019-02-28T05:17:35.049Z,0.00
2019-02-28T05:18:35.566Z,0.00
2019-02-28T05:19:35.754Z,0.00
2019-02-28T05:20:35.554Z,0.00
2019-02-28T05:21:35.000Z,0.00
2019-02-28T05:22:35.010Z,0.00
2019-02-28T05:23:36.160Z,0.00
2019-02-28T05:24:34.971Z,0.00
2019-02-28T05:25:34.954Z,0.00
2019-02-28T05:26:35.553Z,0.00
2019-02-28T05:27:35.412Z,0.00
2019-02-28T05:28:40.154Z,0.00
2019-02-28T05:29:34.909Z,0.00
2019-02-28T05:30:35.556Z,0.00
2019-02-28T05:31:34.886Z,0.00
2019-02-28T05:32:35.625Z,0.00
2019-02-28T05:33:34.883Z,0.00
2019-02-28T05:34:34.856Z,0.00
2019-02-28T05:35:34.847Z,0.00
2019-02-28T05:36:37.932Z,0.00
2019-02-28T05:37:34.844Z,0.00
2019-02-28T05:38:34.826Z,0.00
2019-02-28T05:39:34.799Z,0.00
2019-02-28T05:40:40.598Z,0.00
2019-02-28T05:41:36.232Z,0.00
2019-02-28T05:42:35.554Z,0.00
2019-02-28T05:43:34.780Z,0.00
2019-02-28T05:44:37.405Z,0.00
2019-02-28T05:45:34.734Z,0.00
2019-02-28T05:46:34.726Z,0.00
2019-02-28T05:47:45.777Z,0.00
2019-02-28T05:48:35.222Z,0.00
2019-02-28T05:49:34.692Z,0.00
2019-02-28T05:50:34.679Z,0.00
2019-02-28T05:51:34.669Z,0.00
2019-02-28T05:52:34.656Z,0.00
2019-02-28T05:53:34.671Z,0.00
2019-02-28T05:54:34.633Z,0.00
2019-02-28T05:55:34.626Z,0.00
2019-02-28T05:56:34.632Z,0.00
2019-02-28T05:57:34.604Z,0.00
2019-02-28T05:58:35.074Z,0.00
2019-02-28T05:59:34.598Z,0.00
2019-02-28T06:00:37.026Z,0.00
2019-02-28T06:01:34.559Z,0.00
2019-02-28T06:02:34.547Z,0.00
2019-02-28T06:03:34.571Z,0.00
2019-02-28T06:04:37.177Z,0.00
2019-02-28T06:05:35.057Z,0.00
2019-02-28T06:06:35.056Z,0.00
2019-02-28T06:07:34.494Z,0.00
2019-02-28T06:08:38.693Z,0.00
2019-02-28T06:09:34.466Z,0.00
2019-02-28T06:10:34.461Z,0.00
2019-02-28T06:11:35.629Z,0.00
2019-02-28T06:12:34.436Z,0.00
2019-02-28T06:13:34.438Z,0.00
2019-02-28T06:14:34.415Z,0.00
2019-02-28T06:15:37.175Z,0.00
2019-02-28T06:16:35.058Z,0.00
2019-02-28T06:17:35.059Z,0.00
2019-02-28T06:18:34.396Z,0.00
2019-02-28T06:19:34.360Z,0.00
2019-02-28T06:20:35.057Z,0.00
2019-02-28T06:21:35.068Z,0.00
2019-02-28T06:22:36.249Z,0.00
2019-02-28T06:23:34.583Z,0.00
2019-02-28T06:24:34.306Z,0.00
2019-02-28T06:25:34.292Z,0.00
2019-02-28T06:26:34.283Z,0.00
2019-02-28T06:27:41.065Z,0.00
2019-02-28T06:28:34.291Z,0.00
2019-02-28T06:29:36.788Z,0.00
2019-02-28T06:30:34.237Z,0.00
2019-02-28T06:31:34.550Z,0.00
2019-02-28T06:32:35.058Z,4.00
2019-02-28T06:33:34.438Z,4.00
2019-02-28T06:34:35.071Z,4.00
2019-02-28T06:35:34.184Z,4.00
2019-02-28T06:36:34.182Z,4.00
2019-02-28T06:37:35.373Z,4.00
2019-02-28T06:38:34.157Z,4.00
2019-02-28T06:39:34.149Z,4.00
2019-02-28T06:40:34.127Z,0.00
2019-02-28T06:41:34.117Z,0.00
2019-02-28T06:42:34.106Z,4.00
2019-02-28T06:43:34.103Z,4.00
2019-02-28T06:44:35.071Z,4.00
2019-02-28T06:45:36.780Z,4.00
2019-02-28T06:46:34.060Z,4.00
2019-02-28T06:47:34.051Z,4.00
2019-02-28T06:48:34.050Z,4.00
2019-02-28T06:49:40.993Z,8.00
2019-02-28T06:50:34.021Z,8.00
2019-02-28T06:51:34.560Z,4.00
2019-02-28T06:52:33.999Z,4.00
2019-02-28T06:53:36.207Z,4.00
2019-02-28T06:54:33.986Z,4.00
2019-02-28T06:55:33.957Z,8.00
2019-02-28T06:56:34.564Z,8.00
2019-02-28T06:57:33.941Z,8.00
2019-02-28T06:58:34.070Z,8.00
2019-02-28T06:59:36.151Z,4.00
2019-02-28T07:00:33.906Z,8.00
2019-02-28T07:01:34.562Z,8.00
2019-02-28T07:02:33.882Z,8.00
2019-02-28T07:03:35.353Z,8.00
2019-02-28T07:04:33.890Z,8.00
2019-02-28T07:05:33.853Z,12.00
2019-02-28T07:06:35.929Z,8.00
2019-02-28T07:07:33.827Z,8.00
2019-02-28T07:08:34.085Z,12.00
2019-02-28T07:09:36.421Z,12.00
2019-02-28T07:10:33.797Z,12.00
2019-02-28T07:11:33.788Z,12.00
2019-02-28T07:12:33.784Z,12.00
2019-02-28T07:13:38.996Z,12.00
2019-02-28T07:14:33.798Z,12.00
2019-02-28T07:15:33.754Z,12.00
2019-02-28T07:16:34.423Z,12.00
2019-02-28T07:17:33.729Z,12.00
2019-02-28T07:18:33.718Z,16.00
2019-02-28T07:19:34.577Z,12.00
2019-02-28T07:20:35.135Z,16.00
2019-02-28T07:21:34.591Z,16.00
2019-02-28T07:22:33.664Z,16.00
2019-02-28T07:23:33.665Z,20.00
2019-02-28T07:24:37.280Z,16.00
2019-02-28T07:25:33.634Z,20.00
2019-02-28T07:26:34.569Z,16.00
2019-02-28T07:27:34.583Z,16.00
2019-02-28T07:28:37.276Z,20.00
2019-02-28T07:29:34.575Z,20.00
2019-02-28T07:30:34.582Z,20.00
2019-02-28T07:31:33.599Z,20.00
2019-02-28T07:32:34.290Z,24.00
2019-02-28T07:33:33.563Z,24.00
2019-02-28T07:34:33.545Z,20.00
2019-02-28T07:35:36.761Z,24.00
2019-02-28T07:36:33.521Z,24.00
2019-02-28T07:37:33.515Z,24.00
2019-02-28T07:38:33.502Z,24.00
2019-02-28T07:39:36.497Z,24.00
2019-02-28T07:40:33.465Z,28.00
2019-02-28T07:41:33.461Z,28.00
2019-02-28T07:42:33.693Z,24.00
2019-02-28T07:43:33.578Z,28.00
2019-02-28T07:44:33.438Z,28.00
2019-02-28T07:45:34.238Z,32.00
2019-02-28T07:46:33.418Z,32.00
2019-02-28T07:47:33.399Z,32.00
2019-02-28T07:48:33.390Z,32.00
2019-02-28T07:49:36.675Z,32.00
2019-02-28T07:50:33.374Z,36.00
2019-02-28T07:51:33.355Z,36.00
2019-02-28T07:52:34.079Z,36.00
2019-02-28T07:53:33.614Z,36.00
2019-02-28T07:54:33.333Z,36.00
2019-02-28T07:55:33.303Z,40.00
2019-02-28T07:56:33.294Z,40.00
2019-02-28T07:57:34.068Z,36.00
2019-02-28T07:58:33.650Z,40.00
2019-02-28T07:59:33.311Z,40.00
2019-02-28T08:00:33.246Z,40.00
2019-02-28T08:01:33.238Z,40.00
2019-02-28T08:02:38.859Z,40.00
2019-02-28T08:03:33.226Z,40.00
2019-02-28T08:04:33.213Z,40.00
2019-02-28T08:05:33.201Z,44.00
2019-02-28T08:06:33.208Z,40.00
2019-02-28T08:07:33.174Z,44.00
2019-02-28T08:08:33.161Z,44.00
2019-02-28T08:09:33.613Z,44.00
2019-02-28T08:10:33.141Z,48.00
2019-02-28T08:11:34.073Z,40.00
2019-02-28T08:12:33.120Z,40.00
2019-02-28T08:13:34.541Z,40.00
2019-02-28T08:14:33.583Z,44.00
2019-02-28T08:15:34.066Z,48.00
2019-02-28T08:16:34.811Z,40.00
2019-02-28T08:17:35.311Z,52.00
2019-02-28T08:18:33.061Z,48.00
2019-02-28T08:19:33.057Z,40.00
2019-02-28T08:20:33.949Z,52.00
2019-02-28T08:21:33.570Z,52.00
2019-02-28T08:22:33.012Z,48.00
2019-02-28T08:23:33.001Z,52.00
2019-02-28T08:24:35.843Z,56.00
2019-02-28T08:25:33.576Z,36.00
2019-02-28T08:26:32.967Z,40.00
2019-02-28T08:27:32.975Z,56.00
2019-02-28T08:28:36.742Z,60.00
2019-02-28T08:29:32.945Z,60.00
2019-02-28T08:30:33.573Z,60.00
2019-02-28T08:31:33.073Z,60.00
2019-02-28T08:32:33.988Z,64.00
2019-02-28T08:33:32.892Z,64.00
2019-02-28T08:34:33.100Z,60.00
2019-02-28T08:35:34.800Z,60.00
2019-02-28T08:36:32.859Z,64.00
2019-02-28T08:37:32.853Z,64.00
2019-02-28T08:38:34.418Z,64.00
2019-02-28T08:39:32.865Z,64.00
2019-02-28T08:40:33.588Z,52.00
2019-02-28T08:41:32.810Z,56.00
2019-02-28T08:42:38.490Z,64.00
2019-02-28T08:43:32.789Z,52.00
2019-02-28T08:44:32.786Z,48.00
2019-02-28T08:45:33.589Z,64.00
2019-02-28T08:46:32.751Z,68.00
2019-02-28T08:47:32.741Z,68.00
2019-02-28T08:48:34.751Z,56.00
2019-02-28T08:49:33.098Z,72.00
2019-02-28T08:50:32.720Z,68.00
2019-02-28T08:51:32.700Z,72.00
2019-02-28T08:52:32.687Z,76.00
2019-02-28T08:53:32.683Z,68.00
2019-02-28T08:54:33.088Z,72.00
2019-02-28T08:55:32.666Z,76.00
2019-02-28T08:56:32.645Z,76.00
2019-02-28T08:57:33.575Z,80.00
2019-02-28T08:58:32.621Z,80.00
2019-02-28T08:59:32.619Z,80.00
2019-02-28T09:00:33.397Z,84.00
2019-02-28T09:01:32.589Z,72.00
2019-02-28T09:02:32.579Z,88.00
2019-02-28T09:03:32.705Z,68.00
2019-02-28T09:04:41.005Z,72.00
2019-02-28T09:05:32.556Z,88.00
2019-02-28T09:06:32.532Z,88.00
2019-02-28T09:07:32.524Z,72.00
2019-02-28T09:08:33.086Z,88.00
2019-02-28T09:09:34.414Z,84.00
2019-02-28T09:10:32.599Z,72.00
2019-02-28T09:11:33.065Z,44.00
2019-02-28T09:12:34.066Z,52.00
2019-02-28T09:13:32.462Z,88.00
2019-02-28T09:14:32.468Z,60.00
2019-02-28T09:15:32.466Z,60.00
2019-02-28T09:16:32.435Z,68.00
2019-02-28T09:17:33.071Z,84.00
2019-02-28T09:18:32.405Z,92.00
2019-02-28T09:19:35.839Z,76.00
2019-02-28T09:20:32.407Z,56.00
2019-02-28T09:21:32.418Z,84.00
2019-02-28T09:22:32.364Z,88.00
2019-02-28T09:23:34.500Z,84.00
2019-02-28T09:24:33.074Z,84.00
2019-02-28T09:25:32.355Z,96.00
2019-02-28T09:26:32.321Z,100.00
2019-02-28T09:27:35.359Z,96.00
2019-02-28T09:28:32.295Z,104.00
2019-02-28T09:29:32.286Z,100.00
2019-02-28T09:30:32.606Z,104.00
2019-02-28T09:31:32.265Z,96.00
2019-02-28T09:32:32.259Z,108.00
2019-02-28T09:33:32.249Z,92.00
2019-02-28T09:34:33.075Z,92.00
2019-02-28T09:35:32.632Z,88.00
2019-02-28T09:36:32.210Z,72.00
2019-02-28T09:37:33.073Z,84.00
2019-02-28T09:38:33.074Z,84.00
2019-02-28T09:39:33.077Z,72.00
2019-02-28T09:40:32.183Z,76.00
2019-02-28T09:41:32.156Z,80.00
2019-02-28T09:42:32.143Z,72.00
2019-02-28T09:43:32.139Z,72.00
2019-02-28T09:44:33.075Z,68.00
2019-02-28T09:45:32.145Z,60.00
2019-02-28T09:46:32.584Z,48.00
2019-02-28T09:47:33.076Z,68.00
2019-02-28T09:48:34.023Z,80.00
2019-02-28T09:49:32.578Z,76.00
2019-02-28T09:50:33.272Z,48.00
2019-02-28T09:51:32.859Z,68.00
2019-02-28T09:52:32.027Z,72.00
2019-02-28T09:53:32.020Z,68.00
2019-02-28T09:54:32.006Z,64.00
2019-02-28T09:55:35.268Z,64.00
2019-02-28T09:56:31.996Z,76.00
2019-02-28T09:57:31.974Z,88.00
2019-02-28T09:58:31.961Z,100.00
2019-02-28T09:59:37.494Z,100.00
2019-02-28T10:00:31.941Z,108.00
2019-02-28T10:01:32.085Z,108.00
2019-02-28T10:02:31.921Z,100.00
2019-02-28T10:03:31.909Z,108.00
2019-02-28T10:04:31.897Z,104.00
2019-02-28T10:05:32.573Z,96.00
2019-02-28T10:06:33.242Z,104.00
2019-02-28T10:07:31.866Z,100.00
2019-02-28T10:08:33.590Z,100.00
2019-02-28T10:09:31.842Z,84.00
2019-02-28T10:10:31.833Z,92.00
2019-02-28T10:11:32.593Z,100.00
2019-02-28T10:12:31.807Z,100.00
2019-02-28T10:13:31.799Z,96.00
2019-02-28T10:14:34.574Z,64.00
2019-02-28T10:15:31.771Z,64.00
2019-02-28T10:16:31.772Z,104.00
2019-02-28T10:17:31.752Z,116.00
2019-02-28T10:18:31.739Z,128.00
2019-02-28T10:19:31.727Z,128.00
2019-02-28T10:20:31.724Z,132.00
2019-02-28T10:21:33.293Z,128.00
2019-02-28T10:22:31.720Z,120.00
2019-02-28T10:23:31.726Z,116.00
2019-02-28T10:24:32.343Z,116.00
2019-02-28T10:25:31.673Z,96.00
2019-02-28T10:26:32.701Z,76.00
2019-02-28T10:27:31.645Z,68.00
2019-02-28T10:28:31.626Z,68.00
2019-02-28T10:29:32.575Z,84.00
2019-02-28T10:30:32.651Z,76.00
2019-02-28T10:31:36.309Z,76.00
2019-02-28T10:32:31.595Z,80.00
2019-02-28T10:33:32.082Z,76.00
2019-02-28T10:34:31.560Z,72.00
2019-02-28T10:35:33.429Z,64.00
2019-02-28T10:36:32.079Z,48.00
2019-02-28T10:37:31.588Z,44.00
2019-02-28T10:38:32.906Z,44.00
2019-02-28T10:39:31.584Z,48.00
2019-02-28T10:40:32.085Z,48.00
2019-02-28T10:41:31.484Z,48.00
2019-02-28T10:42:31.475Z,48.00
2019-02-28T10:43:31.459Z,48.00
2019-02-28T10:44:31.614Z,48.00
2019-02-28T10:45:32.077Z,48.00
2019-02-28T10:46:31.425Z,48.00
2019-02-28T10:47:31.599Z,48.00
2019-02-28T10:48:31.406Z,52.00
2019-02-28T10:49:31.394Z,48.00
2019-02-28T10:50:33.222Z,52.00
2019-02-28T10:51:31.381Z,52.00
2019-02-28T10:52:31.368Z,52.00
2019-02-28T10:53:32.078Z,48.00
2019-02-28T10:54:31.339Z,48.00
2019-02-28T10:55:31.329Z,48.00
2019-02-28T10:56:32.046Z,48.00
2019-02-28T10:57:31.322Z,44.00
2019-02-28T10:58:31.291Z,44.00
2019-02-28T10:59:31.280Z,48.00
2019-02-28T11:00:32.718Z,44.00
2019-02-28T11:01:31.277Z,44.00
2019-02-28T11:02:31.257Z,44.00
2019-02-28T11:03:32.313Z,44.00
2019-02-28T11:04:31.224Z,44.00
2019-02-28T11:05:31.213Z,44.00
2019-02-28T11:06:31.214Z,48.00
2019-02-28T11:07:31.201Z,48.00
2019-02-28T11:08:31.188Z,52.00
2019-02-28T11:09:31.169Z,52.00
2019-02-28T11:10:34.711Z,48.00
2019-02-28T11:11:31.159Z,56.00
2019-02-28T11:12:32.110Z,60.00
2019-02-28T11:13:32.196Z,64.00
2019-02-28T11:14:32.114Z,68.00
2019-02-28T11:15:32.088Z,68.00
2019-02-28T11:16:31.103Z,72.00
2019-02-28T11:17:34.121Z,76.00
2019-02-28T11:18:31.103Z,80.00
2019-02-28T11:19:31.062Z,92.00
2019-02-28T11:20:33.254Z,100.00
2019-02-28T11:21:31.593Z,108.00
2019-02-28T11:22:31.025Z,116.00
2019-02-28T11:23:31.108Z,124.00
2019-02-28T11:24:31.009Z,124.00
2019-02-28T11:25:34.585Z,124.00
2019-02-28T11:26:30.996Z,124.00
2019-02-28T11:27:31.582Z,124.00
2019-02-28T11:28:30.976Z,120.00
2019-02-28T11:29:30.951Z,120.00
2019-02-28T11:30:31.578Z,120.00
2019-02-28T11:31:30.935Z,116.00
2019-02-28T11:32:30.918Z,120.00
2019-02-28T11:33:30.914Z,120.00
2019-02-28T11:34:30.890Z,108.00
2019-02-28T11:35:30.883Z,104.00
2019-02-28T11:36:34.086Z,100.00
2019-02-28T11:37:30.857Z,100.00
2019-02-28T11:38:31.125Z,100.00
2019-02-28T11:39:33.708Z,104.00
2019-02-28T11:40:30.830Z,108.00
2019-02-28T11:41:30.840Z,104.00
2019-02-28T11:42:31.265Z,112.00
2019-02-28T11:43:30.813Z,116.00
2019-02-28T11:44:30.785Z,116.00
2019-02-28T11:45:30.778Z,116.00
2019-02-28T11:46:35.817Z,116.00
2019-02-28T11:47:30.748Z,112.00
2019-02-28T11:48:31.096Z,108.00
2019-02-28T11:49:31.643Z,112.00
2019-02-28T11:50:31.581Z,108.00
2019-02-28T11:51:30.751Z,104.00
2019-02-28T11:52:31.585Z,104.00
2019-02-28T11:53:30.701Z,104.00
2019-02-28T11:54:30.679Z,104.00
2019-02-28T11:55:30.684Z,100.00
2019-02-28T11:56:30.650Z,100.00
2019-02-28T11:57:30.635Z,100.00
2019-02-28T11:58:30.633Z,104.00
2019-02-28T11:59:30.611Z,108.00
2019-02-28T12:00:32.615Z,104.00
2019-02-28T12:01:31.625Z,112.00
2019-02-28T12:02:31.786Z,112.00
2019-02-28T12:03:31.811Z,108.00
2019-02-28T12:04:30.561Z,108.00
2019-02-28T12:05:30.581Z,108.00
2019-02-28T12:06:30.543Z,104.00
2019-02-28T12:07:34.608Z,104.00
2019-02-28T12:08:30.513Z,108.00
2019-02-28T12:09:30.509Z,108.00
2019-02-28T12:10:30.488Z,104.00
2019-02-28T12:11:33.424Z,108.00
2019-02-28T12:12:30.466Z,104.00
2019-02-28T12:13:30.459Z,104.00
2019-02-28T12:14:30.452Z,108.00
2019-02-28T12:15:31.252Z,108.00
2019-02-28T12:16:30.422Z,104.00
2019-02-28T12:17:30.413Z,104.00
2019-02-28T12:18:30.402Z,104.00
2019-02-28T12:19:30.397Z,104.00
2019-02-28T12:20:30.381Z,108.00
2019-02-28T12:21:31.107Z,108.00
2019-02-28T12:22:30.354Z,104.00
2019-02-28T12:23:30.344Z,104.00
2019-02-28T12:24:32.319Z,104.00
2019-02-28T12:25:30.325Z,104.00
2019-02-28T12:26:30.429Z,100.00
2019-02-28T12:27:30.356Z,100.00
2019-02-28T12:28:31.109Z,100.00
2019-02-28T12:29:30.607Z,100.00
2019-02-28T12:30:31.087Z,100.00
2019-02-28T12:31:32.129Z,100.00
2019-02-28T12:32:30.250Z,96.00
2019-02-28T12:33:30.237Z,96.00
2019-02-28T12:34:30.242Z,96.00
2019-02-28T12:35:30.222Z,100.00
2019-02-28T12:36:30.248Z,100.00
2019-02-28T12:37:30.195Z,104.00
2019-02-28T12:38:30.186Z,100.00
2019-02-28T12:39:33.319Z,104.00
2019-02-28T12:40:30.165Z,92.00
2019-02-28T12:41:30.156Z,92.00
2019-02-28T12:42:31.655Z,96.00
2019-02-28T12:43:31.091Z,96.00
2019-02-28T12:44:30.135Z,88.00
2019-02-28T12:45:31.109Z,88.00
2019-02-28T12:46:31.878Z,96.00
2019-02-28T12:47:30.252Z,92.00
2019-02-28T12:48:30.078Z,100.00
2019-02-28T12:49:30.068Z,96.00
2019-02-28T12:50:30.385Z,92.00
2019-02-28T12:51:30.045Z,92.00
2019-02-28T12:52:30.044Z,96.00
2019-02-28T12:53:30.030Z,96.00
2019-02-28T12:54:30.324Z,92.00
2019-02-28T12:55:30.009Z,80.00
2019-02-28T12:56:30.111Z,88.00
2019-02-28T12:57:30.597Z,76.00
2019-02-28T12:58:38.663Z,88.00
2019-02-28T12:59:29.956Z,84.00
2019-02-28T13:00:30.598Z,60.00
2019-02-28T13:01:33.148Z,68.00
2019-02-28T13:02:30.585Z,76.00
2019-02-28T13:03:29.918Z,76.00